sensor_id;sensor_type;location;lat;lon;timestamp;P1;durP1;ratioP1;P2;durP2;ratioP2
11046;SDS011;5576;50.008;10.596;2022-10-19T00:00:23;12.43;;;6.13;;
11046;SDS011;5576;50.008;10.596;2022-10-19T00:02:49;12.63;;;6.33;;
11046;SDS011;5576;50.008;10.596;2022-10-19T00:05:15;10.32;;;6.40;;
11046;SDS011;5576;50.008;10.596;2022-10-19T00:07:41;10.60;;;6.30;;
11046;SDS011;5576;50.008;10.596;2022-10-19T00:10:07;13.90;;;6.50;;
11046;SDS011;5576;50.008;10.596;2022-10-19T00:12:33;9.77;;;6.90;;
11046;SDS011;5576;50.008;10.596;2022-10-19T00:14:59;9.30;;;6.80;;
11046;SDS011;5576;50.008;10.596;2022-10-19T00:17:24;10.00;;;6.87;;
11046;SDS011;5576;50.008;10.596;2022-10-19T00:19:50;9.75;;;6.53;;
11046;SDS011;5576;50.008;10.596;2022-10-19T00:22:16;8.23;;;5.95;;
11046;SDS011;5576;50.008;10.596;2022-10-19T00:24:42;6.10;;;5.47;;
11046;SDS011;5576;50.008;10.596;2022-10-19T00:27:08;6.45;;;4.63;;
11046;SDS011;5576;50.008;10.596;2022-10-19T00:29:34;6.47;;;4.90;;
11046;SDS011;5576;50.008;10.596;2022-10-19T00:32:00;6.50;;;5.35;;
11046;SDS011;5576;50.008;10.596;2022-10-19T00:34:26;6.85;;;5.30;;
11046;SDS011;5576;50.008;10.596;2022-10-19T00:36:51;6.43;;;5.37;;
11046;SDS011;5576;50.008;10.596;2022-10-19T00:39:17;5.85;;;5.22;;
11046;SDS011;5576;50.008;10.596;2022-10-19T00:41:44;9.07;;;5.50;;
11046;SDS011;5576;50.008;10.596;2022-10-19T00:46:41;6.78;;;5.97;;
11046;SDS011;5576;50.008;10.596;2022-10-19T00:49:10;11.35;;;6.30;;
11046;SDS011;5576;50.008;10.596;2022-10-19T00:51:44;10.35;;;6.43;;
11046;SDS011;5576;50.008;10.596;2022-10-19T00:54:13;10.25;;;6.50;;
11046;SDS011;5576;50.008;10.596;2022-10-19T00:56:40;10.50;;;6.97;;
11046;SDS011;5576;50.008;10.596;2022-10-19T00:59:07;16.75;;;6.80;;
11046;SDS011;5576;50.008;10.596;2022-10-19T01:01:34;13.10;;;6.85;;
11046;SDS011;5576;50.008;10.596;2022-10-19T01:04:00;7.18;;;6.13;;
11046;SDS011;5576;50.008;10.596;2022-10-19T01:06:27;7.80;;;6.88;;
11046;SDS011;5576;50.008;10.596;2022-10-19T01:08:53;8.40;;;6.60;;
11046;SDS011;5576;50.008;10.596;2022-10-19T01:19:35;28.77;;;5.30;;
11046;SDS011;5576;50.008;10.596;2022-10-19T01:36:43;12.75;;;4.65;;
11046;SDS011;5576;50.008;10.596;2022-10-19T01:42:11;10.07;;;4.30;;
11046;SDS011;5576;50.008;10.596;2022-10-19T01:52:55;7.65;;;4.60;;
11046;SDS011;5576;50.008;10.596;2022-10-19T01:55:23;10.20;;;5.30;;
11046;SDS011;5576;50.008;10.596;2022-10-19T01:57:52;4.72;;;4.05;;
11046;SDS011;5576;50.008;10.596;2022-10-19T02:00:22;8.97;;;4.50;;
11046;SDS011;5576;50.008;10.596;2022-10-19T02:02:50;5.10;;;4.37;;
11046;SDS011;5576;50.008;10.596;2022-10-19T02:05:19;6.75;;;4.38;;
11046;SDS011;5576;50.008;10.596;2022-10-19T02:07:53;8.25;;;4.40;;
11046;SDS011;5576;50.008;10.596;2022-10-19T02:10:22;7.18;;;4.15;;
11046;SDS011;5576;50.008;10.596;2022-10-19T02:12:49;5.47;;;4.13;;
11046;SDS011;5576;50.008;10.596;2022-10-19T02:15:17;4.57;;;4.15;;
11046;SDS011;5576;50.008;10.596;2022-10-19T02:17:47;4.80;;;4.10;;
11046;SDS011;5576;50.008;10.596;2022-10-19T02:20:17;5.03;;;4.35;;
11046;SDS011;5576;50.008;10.596;2022-10-19T02:22:44;5.53;;;4.20;;
11046;SDS011;5576;50.008;10.596;2022-10-19T02:25:10;5.68;;;4.97;;
11046;SDS011;5576;50.008;10.596;2022-10-19T02:27:37;5.47;;;4.90;;
11046;SDS011;5576;50.008;10.596;2022-10-19T02:30:08;5.18;;;4.68;;
11046;SDS011;5576;50.008;10.596;2022-10-19T02:32:35;5.22;;;4.70;;
11046;SDS011;5576;50.008;10.596;2022-10-19T02:35:01;6.57;;;4.90;;
11046;SDS011;5576;50.008;10.596;2022-10-19T02:37:26;5.00;;;4.50;;
11046;SDS011;5576;50.008;10.596;2022-10-19T02:39:52;7.27;;;4.67;;
11046;SDS011;5576;50.008;10.596;2022-10-19T02:42:21;6.35;;;4.13;;
11046;SDS011;5576;50.008;10.596;2022-10-19T02:44:57;7.57;;;4.07;;
11046;SDS011;5576;50.008;10.596;2022-10-19T02:47:34;6.65;;;3.95;;
11046;SDS011;5576;50.008;10.596;2022-10-19T02:50:04;5.45;;;4.30;;
11046;SDS011;5576;50.008;10.596;2022-10-19T02:52:31;6.68;;;4.70;;
11046;SDS011;5576;50.008;10.596;2022-10-19T02:54:57;5.10;;;4.03;;
11046;SDS011;5576;50.008;10.596;2022-10-19T02:57:23;5.30;;;3.92;;
11046;SDS011;5576;50.008;10.596;2022-10-19T02:59:50;5.22;;;4.00;;
11046;SDS011;5576;50.008;10.596;2022-10-19T03:02:16;5.50;;;3.97;;
11046;SDS011;5576;50.008;10.596;2022-10-19T03:04:43;4.57;;;4.07;;
11046;SDS011;5576;50.008;10.596;2022-10-19T03:07:10;6.15;;;4.20;;
11046;SDS011;5576;50.008;10.596;2022-10-19T03:09:39;6.85;;;4.13;;
11046;SDS011;5576;50.008;10.596;2022-10-19T03:12:05;6.15;;;4.20;;
11046;SDS011;5576;50.008;10.596;2022-10-19T03:14:31;6.07;;;4.32;;
11046;SDS011;5576;50.008;10.596;2022-10-19T03:16:57;7.03;;;4.30;;
11046;SDS011;5576;50.008;10.596;2022-10-19T03:19:23;8.43;;;3.65;;
11046;SDS011;5576;50.008;10.596;2022-10-19T03:21:49;4.65;;;4.07;;
11046;SDS011;5576;50.008;10.596;2022-10-19T03:24:15;6.97;;;4.80;;
11046;SDS011;5576;50.008;10.596;2022-10-19T03:26:40;6.72;;;5.28;;
11046;SDS011;5576;50.008;10.596;2022-10-19T03:29:06;7.32;;;4.82;;
11046;SDS011;5576;50.008;10.596;2022-10-19T03:31:33;8.45;;;5.40;;
11046;SDS011;5576;50.008;10.596;2022-10-19T03:33:59;6.05;;;5.15;;
11046;SDS011;5576;50.008;10.596;2022-10-19T03:36:25;6.90;;;5.63;;
11046;SDS011;5576;50.008;10.596;2022-10-19T03:38:55;10.20;;;5.93;;
11046;SDS011;5576;50.008;10.596;2022-10-19T03:41:23;6.63;;;5.93;;
11046;SDS011;5576;50.008;10.596;2022-10-19T03:43:52;6.00;;;5.40;;
11046;SDS011;5576;50.008;10.596;2022-10-19T03:46:18;5.97;;;4.95;;
11046;SDS011;5576;50.008;10.596;2022-10-19T03:48:44;5.53;;;4.43;;
11046;SDS011;5576;50.008;10.596;2022-10-19T03:51:12;5.32;;;4.50;;
11046;SDS011;5576;50.008;10.596;2022-10-19T03:53:40;6.45;;;4.93;;
11046;SDS011;5576;50.008;10.596;2022-10-19T03:56:07;8.52;;;5.10;;
11046;SDS011;5576;50.008;10.596;2022-10-19T03:58:35;6.13;;;5.50;;
11046;SDS011;5576;50.008;10.596;2022-10-19T04:01:05;7.75;;;5.85;;
11046;SDS011;5576;50.008;10.596;2022-10-19T04:03:32;8.23;;;6.03;;
11046;SDS011;5576;50.008;10.596;2022-10-19T04:06:02;11.55;;;7.00;;
11046;SDS011;5576;50.008;10.596;2022-10-19T04:08:28;8.65;;;7.07;;
11046;SDS011;5576;50.008;10.596;2022-10-19T04:11:03;10.52;;;7.20;;
11046;SDS011;5576;50.008;10.596;2022-10-19T04:13:29;9.83;;;7.30;;
11046;SDS011;5576;50.008;10.596;2022-10-19T04:15:56;8.85;;;6.70;;
11046;SDS011;5576;50.008;10.596;2022-10-19T04:18:22;9.73;;;6.93;;
11046;SDS011;5576;50.008;10.596;2022-10-19T04:20:54;12.98;;;7.03;;
11046;SDS011;5576;50.008;10.596;2022-10-19T04:23:20;10.37;;;7.50;;
11046;SDS011;5576;50.008;10.596;2022-10-19T04:25:46;10.90;;;7.90;;
11046;SDS011;5576;50.008;10.596;2022-10-19T04:28:11;9.63;;;8.03;;
11046;SDS011;5576;50.008;10.596;2022-10-19T04:30:37;12.20;;;7.80;;
11046;SDS011;5576;50.008;10.596;2022-10-19T04:33:03;12.23;;;7.93;;
11046;SDS011;5576;50.008;10.596;2022-10-19T04:35:29;15.73;;;8.52;;
11046;SDS011;5576;50.008;10.596;2022-10-19T04:37:54;17.00;;;9.60;;
11046;SDS011;5576;50.008;10.596;2022-10-19T04:40:20;15.63;;;9.05;;
11046;SDS011;5576;50.008;10.596;2022-10-19T04:42:46;14.80;;;8.87;;
11046;SDS011;5576;50.008;10.596;2022-10-19T04:45:11;12.75;;;9.13;;
11046;SDS011;5576;50.008;10.596;2022-10-19T04:47:37;15.27;;;8.70;;
11046;SDS011;5576;50.008;10.596;2022-10-19T04:50:03;13.88;;;8.77;;
11046;SDS011;5576;50.008;10.596;2022-10-19T04:52:29;13.95;;;9.63;;
11046;SDS011;5576;50.008;10.596;2022-10-19T04:54:55;15.97;;;9.30;;
11046;SDS011;5576;50.008;10.596;2022-10-19T04:57:21;13.40;;;9.23;;
11046;SDS011;5576;50.008;10.596;2022-10-19T04:59:46;14.80;;;9.73;;
11046;SDS011;5576;50.008;10.596;2022-10-19T05:02:12;10.35;;;7.00;;
11046;SDS011;5576;50.008;10.596;2022-10-19T05:04:38;6.77;;;5.40;;
11046;SDS011;5576;50.008;10.596;2022-10-19T05:07:04;8.07;;;5.22;;
11046;SDS011;5576;50.008;10.596;2022-10-19T05:09:29;5.20;;;4.70;;
11046;SDS011;5576;50.008;10.596;2022-10-19T05:11:55;4.57;;;3.80;;
11046;SDS011;5576;50.008;10.596;2022-10-19T05:14:22;4.00;;;3.70;;
11046;SDS011;5576;50.008;10.596;2022-10-19T05:16:48;3.70;;;3.40;;
11046;SDS011;5576;50.008;10.596;2022-10-19T05:19:14;3.55;;;3.25;;
11046;SDS011;5576;50.008;10.596;2022-10-19T05:21:40;4.13;;;3.33;;
11046;SDS011;5576;50.008;10.596;2022-10-19T05:24:06;3.50;;;3.20;;
11046;SDS011;5576;50.008;10.596;2022-10-19T05:26:32;3.00;;;2.70;;
11046;SDS011;5576;50.008;10.596;2022-10-19T05:28:59;3.30;;;3.00;;
11046;SDS011;5576;50.008;10.596;2022-10-19T05:31:29;3.33;;;3.03;;
11046;SDS011;5576;50.008;10.596;2022-10-19T05:33:56;2.83;;;2.47;;
11046;SDS011;5576;50.008;10.596;2022-10-19T05:38:55;3.27;;;2.97;;
11046;SDS011;5576;50.008;10.596;2022-10-19T05:41:22;3.42;;;3.13;;
11046;SDS011;5576;50.008;10.596;2022-10-19T05:43:52;4.17;;;3.40;;
11046;SDS011;5576;50.008;10.596;2022-10-19T05:46:18;4.78;;;3.38;;
11046;SDS011;5576;50.008;10.596;2022-10-19T05:48:45;3.85;;;3.47;;
11046;SDS011;5576;50.008;10.596;2022-10-19T05:51:12;3.83;;;3.42;;
11046;SDS011;5576;50.008;10.596;2022-10-19T05:53:38;3.87;;;3.50;;
11046;SDS011;5576;50.008;10.596;2022-10-19T05:56:05;3.88;;;3.50;;
11046;SDS011;5576;50.008;10.596;2022-10-19T05:58:32;5.72;;;3.50;;
11046;SDS011;5576;50.008;10.596;2022-10-19T06:00:59;3.70;;;3.10;;
11046;SDS011;5576;50.008;10.596;2022-10-19T06:03:26;4.03;;;3.63;;
11046;SDS011;5576;50.008;10.596;2022-10-19T06:05:53;3.95;;;3.45;;
11046;SDS011;5576;50.008;10.596;2022-10-19T06:08:20;4.03;;;3.60;;
11046;SDS011;5576;50.008;10.596;2022-10-19T06:10:46;4.40;;;3.80;;
11046;SDS011;5576;50.008;10.596;2022-10-19T06:13:13;4.93;;;3.20;;
11046;SDS011;5576;50.008;10.596;2022-10-19T06:15:40;3.95;;;3.28;;
11046;SDS011;5576;50.008;10.596;2022-10-19T06:18:07;4.53;;;3.90;;
11046;SDS011;5576;50.008;10.596;2022-10-19T06:20:35;4.07;;;3.65;;
11046;SDS011;5576;50.008;10.596;2022-10-19T06:23:01;5.20;;;3.78;;
11046;SDS011;5576;50.008;10.596;2022-10-19T06:25:28;5.07;;;3.85;;
11046;SDS011;5576;50.008;10.596;2022-10-19T06:27:55;6.82;;;4.00;;
11046;SDS011;5576;50.008;10.596;2022-10-19T06:30:21;5.88;;;4.07;;
11046;SDS011;5576;50.008;10.596;2022-10-19T06:32:47;4.75;;;4.03;;
11046;SDS011;5576;50.008;10.596;2022-10-19T06:35:13;5.50;;;4.40;;
11046;SDS011;5576;50.008;10.596;2022-10-19T06:37:40;6.22;;;4.50;;
11046;SDS011;5576;50.008;10.596;2022-10-19T06:40:06;4.70;;;4.20;;
11046;SDS011;5576;50.008;10.596;2022-10-19T06:42:33;7.13;;;4.50;;
11046;SDS011;5576;50.008;10.596;2022-10-19T06:44:59;5.72;;;4.38;;
11046;SDS011;5576;50.008;10.596;2022-10-19T06:47:24;4.68;;;4.18;;
11046;SDS011;5576;50.008;10.596;2022-10-19T06:49:55;5.95;;;4.47;;
11046;SDS011;5576;50.008;10.596;2022-10-19T06:52:21;5.67;;;4.00;;
11046;SDS011;5576;50.008;10.596;2022-10-19T06:54:47;7.40;;;4.88;;
11046;SDS011;5576;50.008;10.596;2022-10-19T06:57:13;6.50;;;4.97;;
11046;SDS011;5576;50.008;10.596;2022-10-19T06:59:39;8.67;;;5.23;;
11046;SDS011;5576;50.008;10.596;2022-10-19T07:02:05;7.50;;;5.15;;
11046;SDS011;5576;50.008;10.596;2022-10-19T07:04:31;8.00;;;5.35;;
11046;SDS011;5576;50.008;10.596;2022-10-19T07:06:56;8.73;;;5.32;;
11046;SDS011;5576;50.008;10.596;2022-10-19T07:09:22;8.40;;;5.30;;
11046;SDS011;5576;50.008;10.596;2022-10-19T07:11:48;10.83;;;5.67;;
11046;SDS011;5576;50.008;10.596;2022-10-19T07:14:14;10.52;;;5.68;;
11046;SDS011;5576;50.008;10.596;2022-10-19T07:16:39;8.50;;;6.07;;
11046;SDS011;5576;50.008;10.596;2022-10-19T07:19:05;9.27;;;6.65;;
11046;SDS011;5576;50.008;10.596;2022-10-19T07:21:31;8.80;;;6.53;;
11046;SDS011;5576;50.008;10.596;2022-10-19T07:23:56;10.18;;;6.88;;
11046;SDS011;5576;50.008;10.596;2022-10-19T07:26:23;10.33;;;6.90;;
11046;SDS011;5576;50.008;10.596;2022-10-19T07:28:52;9.40;;;6.88;;
11046;SDS011;5576;50.008;10.596;2022-10-19T07:31:20;10.00;;;6.78;;
11046;SDS011;5576;50.008;10.596;2022-10-19T07:33:52;9.13;;;6.65;;
11046;SDS011;5576;50.008;10.596;2022-10-19T07:36:19;8.55;;;6.72;;
11046;SDS011;5576;50.008;10.596;2022-10-19T07:38:45;10.57;;;7.10;;
11046;SDS011;5576;50.008;10.596;2022-10-19T07:41:13;9.02;;;7.20;;
11046;SDS011;5576;50.008;10.596;2022-10-19T07:43:41;8.98;;;7.32;;
11046;SDS011;5576;50.008;10.596;2022-10-19T07:46:10;10.23;;;7.80;;
11046;SDS011;5576;50.008;10.596;2022-10-19T07:48:37;9.25;;;7.55;;
11046;SDS011;5576;50.008;10.596;2022-10-19T07:51:04;8.97;;;7.40;;
11046;SDS011;5576;50.008;10.596;2022-10-19T07:53:31;10.65;;;8.27;;
11046;SDS011;5576;50.008;10.596;2022-10-19T07:56:06;14.38;;;10.73;;
11046;SDS011;5576;50.008;10.596;2022-10-19T07:58:33;15.88;;;10.98;;
11046;SDS011;5576;50.008;10.596;2022-10-19T08:01:01;10.07;;;8.30;;
11046;SDS011;5576;50.008;10.596;2022-10-19T08:03:29;10.95;;;8.05;;
11046;SDS011;5576;50.008;10.596;2022-10-19T08:05:59;11.45;;;9.13;;
11046;SDS011;5576;50.008;10.596;2022-10-19T08:08:25;11.53;;;9.23;;
11046;SDS011;5576;50.008;10.596;2022-10-19T08:10:51;13.65;;;10.55;;
11046;SDS011;5576;50.008;10.596;2022-10-19T08:13:17;12.13;;;10.13;;
11046;SDS011;5576;50.008;10.596;2022-10-19T08:15:43;11.68;;;9.38;;
11046;SDS011;5576;50.008;10.596;2022-10-19T08:18:09;13.27;;;10.05;;
11046;SDS011;5576;50.008;10.596;2022-10-19T08:20:35;13.77;;;10.90;;
11046;SDS011;5576;50.008;10.596;2022-10-19T08:23:01;11.98;;;9.45;;
11046;SDS011;5576;50.008;10.596;2022-10-19T08:25:27;11.10;;;8.95;;
11046;SDS011;5576;50.008;10.596;2022-10-19T08:27:53;11.90;;;10.13;;
11046;SDS011;5576;50.008;10.596;2022-10-19T08:30:19;11.07;;;9.63;;
11046;SDS011;5576;50.008;10.596;2022-10-19T08:32:45;11.85;;;10.20;;
11046;SDS011;5576;50.008;10.596;2022-10-19T08:35:11;12.48;;;10.43;;
11046;SDS011;5576;50.008;10.596;2022-10-19T08:37:37;12.60;;;10.47;;
11046;SDS011;5576;50.008;10.596;2022-10-19T08:40:03;12.85;;;10.85;;
11046;SDS011;5576;50.008;10.596;2022-10-19T08:42:49;12.43;;;10.35;;
11046;SDS011;5576;50.008;10.596;2022-10-19T08:50:43;14.02;;;10.90;;
11046;SDS011;5576;50.008;10.596;2022-10-19T08:56:05;12.07;;;9.60;;
11046;SDS011;5576;50.008;10.596;2022-10-19T09:01:42;11.95;;;10.50;;
11046;SDS011;5576;50.008;10.596;2022-10-19T09:04:13;13.77;;;10.50;;
11046;SDS011;5576;50.008;10.596;2022-10-19T09:09:33;11.88;;;9.32;;
11046;SDS011;5576;50.008;10.596;2022-10-19T09:12:06;12.27;;;9.80;;
11046;SDS011;5576;50.008;10.596;2022-10-19T09:14:39;12.10;;;9.90;;
11046;SDS011;5576;50.008;10.596;2022-10-19T09:17:28;11.20;;;9.75;;
11046;SDS011;5576;50.008;10.596;2022-10-19T09:19:55;11.50;;;9.90;;
11046;SDS011;5576;50.008;10.596;2022-10-19T09:22:22;13.23;;;9.97;;
11046;SDS011;5576;50.008;10.596;2022-10-19T09:24:53;11.35;;;9.18;;
11046;SDS011;5576;50.008;10.596;2022-10-19T09:27:21;11.98;;;9.32;;
11046;SDS011;5576;50.008;10.596;2022-10-19T09:29:50;10.45;;;9.05;;
11046;SDS011;5576;50.008;10.596;2022-10-19T09:32:21;10.75;;;8.93;;
11046;SDS011;5576;50.008;10.596;2022-10-19T09:34:49;12.13;;;9.52;;
11046;SDS011;5576;50.008;10.596;2022-10-19T09:37:17;9.70;;;8.30;;
11046;SDS011;5576;50.008;10.596;2022-10-19T09:39:44;11.82;;;8.25;;
11046;SDS011;5576;50.008;10.596;2022-10-19T09:42:27;10.27;;;8.93;;
11046;SDS011;5576;50.008;10.596;2022-10-19T09:44:58;11.37;;;8.50;;
11046;SDS011;5576;50.008;10.596;2022-10-19T09:47:41;13.00;;;9.65;;
11046;SDS011;5576;50.008;10.596;2022-10-19T09:50:13;10.18;;;8.20;;
11046;SDS011;5576;50.008;10.596;2022-10-19T09:52:50;9.80;;;7.40;;
11046;SDS011;5576;50.008;10.596;2022-10-19T10:00:40;10.40;;;7.95;;
11046;SDS011;5576;50.008;10.596;2022-10-19T10:03:40;9.93;;;7.65;;
11046;SDS011;5576;50.008;10.596;2022-10-19T10:05:57;9.50;;;7.63;;
11046;SDS011;5576;50.008;10.596;2022-10-19T10:08:28;9.23;;;7.13;;
11046;SDS011;5576;50.008;10.596;2022-10-19T10:10:58;10.70;;;8.00;;
11046;SDS011;5576;50.008;10.596;2022-10-19T10:13:34;10.05;;;8.10;;
11046;SDS011;5576;50.008;10.596;2022-10-19T10:16:02;10.57;;;7.80;;
11046;SDS011;5576;50.008;10.596;2022-10-19T10:18:31;8.40;;;7.30;;
11046;SDS011;5576;50.008;10.596;2022-10-19T10:21:13;10.00;;;7.15;;
11046;SDS011;5576;50.008;10.596;2022-10-19T10:23:57;8.85;;;7.30;;
11046;SDS011;5576;50.008;10.596;2022-10-19T10:32:05;8.02;;;6.80;;
11046;SDS011;5576;50.008;10.596;2022-10-19T10:34:37;8.32;;;7.07;;
11046;SDS011;5576;50.008;10.596;2022-10-19T10:37:28;9.68;;;7.10;;
11046;SDS011;5576;50.008;10.596;2022-10-19T10:40:03;8.88;;;7.07;;
11046;SDS011;5576;50.008;10.596;2022-10-19T10:42:40;8.93;;;7.07;;
11046;SDS011;5576;50.008;10.596;2022-10-19T10:45:25;8.20;;;6.95;;
11046;SDS011;5576;50.008;10.596;2022-10-19T10:47:55;8.45;;;7.18;;
11046;SDS011;5576;50.008;10.596;2022-10-19T10:50:25;8.50;;;7.03;;
11046;SDS011;5576;50.008;10.596;2022-10-19T10:52:57;9.40;;;7.45;;
11046;SDS011;5576;50.008;10.596;2022-10-19T10:55:25;8.53;;;6.87;;
11046;SDS011;5576;50.008;10.596;2022-10-19T10:57:52;8.52;;;7.43;;
11046;SDS011;5576;50.008;10.596;2022-10-19T11:00:25;8.27;;;7.07;;
11046;SDS011;5576;50.008;10.596;2022-10-19T11:03:04;8.07;;;6.38;;
11046;SDS011;5576;50.008;10.596;2022-10-19T11:05:54;8.30;;;7.18;;
11046;SDS011;5576;50.008;10.596;2022-10-19T11:13:28;8.85;;;6.85;;
11046;SDS011;5576;50.008;10.596;2022-10-19T11:16:16;8.25;;;6.40;;
11046;SDS011;5576;50.008;10.596;2022-10-19T11:21:36;7.72;;;6.85;;
11046;SDS011;5576;50.008;10.596;2022-10-19T11:29:55;8.80;;;7.38;;
11046;SDS011;5576;50.008;10.596;2022-10-19T11:37:58;7.50;;;6.53;;
11046;SDS011;5576;50.008;10.596;2022-10-19T11:40:48;6.85;;;6.13;;
11046;SDS011;5576;50.008;10.596;2022-10-19T11:45:58;8.70;;;6.15;;
11046;SDS011;5576;50.008;10.596;2022-10-19T11:51:32;8.38;;;6.00;;
11046;SDS011;5576;50.008;10.596;2022-10-19T12:04:24;6.63;;;5.18;;
11046;SDS011;5576;50.008;10.596;2022-10-19T12:07:16;10.40;;;7.07;;
11046;SDS011;5576;50.008;10.596;2022-10-19T12:12:34;7.95;;;6.10;;
11046;SDS011;5576;50.008;10.596;2022-10-19T12:17:54;7.13;;;5.78;;
11046;SDS011;5576;50.008;10.596;2022-10-19T12:20:42;6.63;;;5.47;;
11046;SDS011;5576;50.008;10.596;2022-10-19T12:23:22;6.75;;;5.47;;
11046;SDS011;5576;50.008;10.596;2022-10-19T12:25:50;6.20;;;5.57;;
11046;SDS011;5576;50.008;10.596;2022-10-19T12:28:20;8.32;;;6.50;;
11046;SDS011;5576;50.008;10.596;2022-10-19T12:30:56;15.75;;;8.13;;
11046;SDS011;5576;50.008;10.596;2022-10-19T12:33:30;7.32;;;5.43;;
11046;SDS011;5576;50.008;10.596;2022-10-19T12:36:11;6.60;;;5.50;;
11046;SDS011;5576;50.008;10.596;2022-10-19T12:47:26;8.00;;;6.22;;
11046;SDS011;5576;50.008;10.596;2022-10-19T12:49:53;8.40;;;6.93;;
11046;SDS011;5576;50.008;10.596;2022-10-19T12:52:32;7.50;;;6.28;;
11046;SDS011;5576;50.008;10.596;2022-10-19T12:55:25;5.70;;;5.00;;
11046;SDS011;5576;50.008;10.596;2022-10-19T12:57:57;6.22;;;4.90;;
11046;SDS011;5576;50.008;10.596;2022-10-19T13:00:29;7.75;;;6.00;;
11046;SDS011;5576;50.008;10.596;2022-10-19T13:03:03;5.68;;;4.78;;
11046;SDS011;5576;50.008;10.596;2022-10-19T13:05:32;6.85;;;5.20;;
11046;SDS011;5576;50.008;10.596;2022-10-19T13:08:00;6.30;;;5.07;;
11046;SDS011;5576;50.008;10.596;2022-10-19T13:10:28;8.27;;;6.47;;
11046;SDS011;5576;50.008;10.596;2022-10-19T13:12:56;7.45;;;6.63;;
11046;SDS011;5576;50.008;10.596;2022-10-19T13:15:58;7.43;;;5.47;;
11046;SDS011;5576;50.008;10.596;2022-10-19T13:18:14;7.32;;;6.10;;
11046;SDS011;5576;50.008;10.596;2022-10-19T13:21:00;6.50;;;5.90;;
11046;SDS011;5576;50.008;10.596;2022-10-19T13:28:56;6.13;;;5.25;;
11046;SDS011;5576;50.008;10.596;2022-10-19T13:31:27;6.20;;;5.53;;
11046;SDS011;5576;50.008;10.596;2022-10-19T13:33:54;5.95;;;4.57;;
11046;SDS011;5576;50.008;10.596;2022-10-19T13:36:21;6.25;;;4.85;;
11046;SDS011;5576;50.008;10.596;2022-10-19T13:41:24;6.05;;;4.60;;
11046;SDS011;5576;50.008;10.596;2022-10-19T13:58:17;7.43;;;6.00;;
11046;SDS011;5576;50.008;10.596;2022-10-19T14:03:56;11.95;;;9.10;;
11046;SDS011;5576;50.008;10.596;2022-10-19T14:06:32;7.18;;;5.75;;
11046;SDS011;5576;50.008;10.596;2022-10-19T14:12:15;9.00;;;7.80;;
11046;SDS011;5576;50.008;10.596;2022-10-19T14:14:50;7.47;;;6.38;;
11046;SDS011;5576;50.008;10.596;2022-10-19T14:17:21;7.57;;;5.57;;
11046;SDS011;5576;50.008;10.596;2022-10-19T14:19:51;7.55;;;5.40;;
11046;SDS011;5576;50.008;10.596;2022-10-19T14:24:50;5.78;;;5.18;;
11046;SDS011;5576;50.008;10.596;2022-10-19T14:27:23;6.20;;;5.40;;
11046;SDS011;5576;50.008;10.596;2022-10-19T14:29:50;6.55;;;5.20;;
11046;SDS011;5576;50.008;10.596;2022-10-19T14:32:18;7.10;;;4.87;;
11046;SDS011;5576;50.008;10.596;2022-10-19T14:34:48;5.00;;;4.38;;
11046;SDS011;5576;50.008;10.596;2022-10-19T14:37:16;5.93;;;4.70;;
11046;SDS011;5576;50.008;10.596;2022-10-19T14:39:55;5.63;;;4.60;;
11046;SDS011;5576;50.008;10.596;2022-10-19T14:42:46;5.03;;;4.53;;
11046;SDS011;5576;50.008;10.596;2022-10-19T14:45:14;6.80;;;4.55;;
11046;SDS011;5576;50.008;10.596;2022-10-19T14:47:49;6.63;;;4.50;;
11046;SDS011;5576;50.008;10.596;2022-10-19T14:50:17;6.05;;;4.80;;
11046;SDS011;5576;50.008;10.596;2022-10-19T14:52:44;5.10;;;4.60;;
11046;SDS011;5576;50.008;10.596;2022-10-19T14:55:14;6.45;;;4.40;;
11046;SDS011;5576;50.008;10.596;2022-10-19T14:57:41;6.13;;;4.30;;
11046;SDS011;5576;50.008;10.596;2022-10-19T15:00:14;6.20;;;4.40;;
11046;SDS011;5576;50.008;10.596;2022-10-19T15:02:45;5.53;;;4.47;;
11046;SDS011;5576;50.008;10.596;2022-10-19T15:05:23;5.70;;;4.60;;
11046;SDS011;5576;50.008;10.596;2022-10-19T15:07:53;5.45;;;4.70;;
11046;SDS011;5576;50.008;10.596;2022-10-19T15:10:24;6.95;;;4.75;;
11046;SDS011;5576;50.008;10.596;2022-10-19T15:12:57;6.80;;;4.80;;
11046;SDS011;5576;50.008;10.596;2022-10-19T15:15:28;5.40;;;4.63;;
11046;SDS011;5576;50.008;10.596;2022-10-19T15:20:29;5.50;;;4.30;;
11046;SDS011;5576;50.008;10.596;2022-10-19T15:23:00;5.57;;;4.22;;
11046;SDS011;5576;50.008;10.596;2022-10-19T15:25:29;5.10;;;4.25;;
11046;SDS011;5576;50.008;10.596;2022-10-19T15:28:17;5.07;;;4.53;;
11046;SDS011;5576;50.008;10.596;2022-10-19T15:30:55;6.60;;;4.57;;
11046;SDS011;5576;50.008;10.596;2022-10-19T15:33:24;6.60;;;4.22;;
11046;SDS011;5576;50.008;10.596;2022-10-19T15:35:50;5.68;;;4.20;;
11046;SDS011;5576;50.008;10.596;2022-10-19T15:38:22;5.97;;;4.25;;
11046;SDS011;5576;50.008;10.596;2022-10-19T15:40:58;5.28;;;4.45;;
11046;SDS011;5576;50.008;10.596;2022-10-19T15:51:48;5.45;;;4.28;;
11046;SDS011;5576;50.008;10.596;2022-10-19T15:54:15;7.82;;;6.15;;
11046;SDS011;5576;50.008;10.596;2022-10-19T15:56:44;6.75;;;5.60;;
11046;SDS011;5576;50.008;10.596;2022-10-19T15:59:14;6.43;;;5.43;;
11046;SDS011;5576;50.008;10.596;2022-10-19T16:01:42;7.03;;;5.63;;
11046;SDS011;5576;50.008;10.596;2022-10-19T16:04:08;6.97;;;5.32;;
11046;SDS011;5576;50.008;10.596;2022-10-19T16:06:35;5.35;;;4.50;;
11046;SDS011;5576;50.008;10.596;2022-10-19T16:09:04;5.57;;;4.07;;
11046;SDS011;5576;50.008;10.596;2022-10-19T16:11:30;6.00;;;4.25;;
11046;SDS011;5576;50.008;10.596;2022-10-19T16:13:57;6.20;;;3.95;;
11046;SDS011;5576;50.008;10.596;2022-10-19T16:16:27;4.85;;;4.00;;
11046;SDS011;5576;50.008;10.596;2022-10-19T16:18:56;5.72;;;3.92;;
11046;SDS011;5576;50.008;10.596;2022-10-19T16:21:24;5.55;;;4.07;;
11046;SDS011;5576;50.008;10.596;2022-10-19T16:23:52;4.87;;;3.80;;
11046;SDS011;5576;50.008;10.596;2022-10-19T16:26:18;5.60;;;3.80;;
11046;SDS011;5576;50.008;10.596;2022-10-19T16:28:44;5.97;;;4.18;;
11046;SDS011;5576;50.008;10.596;2022-10-19T16:31:13;4.93;;;3.73;;
11046;SDS011;5576;50.008;10.596;2022-10-19T16:33:39;6.60;;;4.38;;
11046;SDS011;5576;50.008;10.596;2022-10-19T16:36:05;4.87;;;3.83;;
11046;SDS011;5576;50.008;10.596;2022-10-19T16:38:32;6.03;;;4.03;;
11046;SDS011;5576;50.008;10.596;2022-10-19T16:40:59;6.75;;;4.00;;
11046;SDS011;5576;50.008;10.596;2022-10-19T16:43:26;6.47;;;4.07;;
11046;SDS011;5576;50.008;10.596;2022-10-19T16:45:52;4.83;;;3.40;;
11046;SDS011;5576;50.008;10.596;2022-10-19T16:48:18;6.78;;;4.50;;
11046;SDS011;5576;50.008;10.596;2022-10-19T16:50:43;6.27;;;4.30;;
11046;SDS011;5576;50.008;10.596;2022-10-19T16:53:09;7.68;;;6.40;;
11046;SDS011;5576;50.008;10.596;2022-10-19T16:55:36;8.90;;;6.23;;
11046;SDS011;5576;50.008;10.596;2022-10-19T16:58:03;7.30;;;4.40;;
11046;SDS011;5576;50.008;10.596;2022-10-19T17:00:29;6.23;;;4.20;;
11046;SDS011;5576;50.008;10.596;2022-10-19T17:02:56;8.77;;;4.90;;
11046;SDS011;5576;50.008;10.596;2022-10-19T17:05:21;10.45;;;9.23;;
11046;SDS011;5576;50.008;10.596;2022-10-19T17:07:47;13.37;;;11.97;;
11046;SDS011;5576;50.008;10.596;2022-10-19T17:10:13;5.97;;;4.60;;
11046;SDS011;5576;50.008;10.596;2022-10-19T17:12:40;5.95;;;4.07;;
11046;SDS011;5576;50.008;10.596;2022-10-19T17:15:07;6.38;;;3.75;;
11046;SDS011;5576;50.008;10.596;2022-10-19T17:17:33;5.40;;;4.35;;
11046;SDS011;5576;50.008;10.596;2022-10-19T17:19:59;5.82;;;4.13;;
11046;SDS011;5576;50.008;10.596;2022-10-19T17:22:25;7.77;;;3.60;;
11046;SDS011;5576;50.008;10.596;2022-10-19T17:24:51;6.22;;;3.83;;
11046;SDS011;5576;50.008;10.596;2022-10-19T17:27:18;6.32;;;4.50;;
11046;SDS011;5576;50.008;10.596;2022-10-19T17:29:43;7.30;;;4.13;;